Time;durP1;ratioP1;P1;durP2;ratioP2;P2;SDS_P1;SDS_P2;PMS_P1;PMS_P2;Temp;Humidity;BMP_temperature;BMP_pressure;BME280_temperature;BME280_humidity;BME280_pressure;Samples;Min_cycle;Max_cycle;Signal;HPM_P1;HPM_P2
2021/12/21 00:00:45;;;;;;;16.40;9.90;;;;;;;-0.35;72.82;101185.35;107984;1291;22066;-80
2021/12/21 00:03:15;;;;;;;16.20;9.70;;;;;;;-0.33;72.90;101185.06;108301;1289;22119;-79
2021/12/21 00:05:45;;;;;;;15.90;9.60;;;;;;;-0.30;72.88;101186.79;108301;1289;21992;-79
2021/12/21 00:08:16;;;;;;;17.30;10.50;;;;;;;-0.25;72.98;101188.63;108445;1285;21952;-78
2021/12/21 00:11:05;;;;;;;16.60;10.30;;;;;;;-0.24;72.69;101187.04;108461;1285;22030;-81
2021/12/21 00:19:06;;;;;;;19.20;10.80;;;;;;;-0.22;72.78;101182.77;108470;1285;21983;-79
2021/12/21 00:21:40;;;;;;;16.80;11.70;;;;;;;-0.21;72.69;101188.10;108408;1285;22002;-78
2021/12/21 00:24:21;;;;;;;19.60;12.20;;;;;;;-0.21;72.70;101186.52;108529;1286;23694;-79
2021/12/21 00:26:51;;;;;;;20.20;12.60;;;;;;;-0.20;72.73;101191.48;108450;1285;23627;-79
2021/12/21 00:29:21;;;;;;;20.70;12.30;;;;;;;-0.21;72.72;101194.64;108431;1286;21994;-81
2021/12/21 00:31:50;;;;;;;19.90;11.70;;;;;;;-0.20;72.74;101202.41;108351;1286;22111;-80
2021/12/21 00:34:19;;;;;;;16.90;11.60;;;;;;;-0.22;72.68;101201.63;108344;1286;22384;-78
2021/12/21 00:36:48;;;;;;;19.20;11.70;;;;;;;-0.22;72.69;101209.08;108135;1289;23724;-78
2021/12/21 00:39:17;;;;;;;18.00;10.10;;;;;;;-0.21;72.79;101207.65;108334;1288;21998;-79
2021/12/21 00:41:47;;;;;;;18.40;11.80;;;;;;;-0.20;72.73;101206.58;108316;1287;23568;-79
2021/12/21 00:44:16;;;;;;;21.30;10.40;;;;;;;-0.20;72.74;101209.71;108285;1287;23065;-78
2021/12/21 00:46:45;;;;;;;16.50;11.00;;;;;;;-0.21;72.69;101211.13;108441;1288;22025;-79
2021/12/21 00:49:16;;;;;;;14.50;9.90;;;;;;;-0.21;72.70;101209.23;108154;1287;22056;-79
2021/12/21 00:51:47;;;;;;;12.50;9.20;;;;;;;-0.22;72.76;101213.06;108325;1289;22048;-79
2021/12/21 00:54:18;;;;;;;13.00;9.10;;;;;;;-0.21;72.80;101212.68;108388;1288;22004;-80
2021/12/21 00:56:47;;;;;;;15.20;8.60;;;;;;;-0.21;72.76;101209.91;107965;1294;22041;-80
2021/12/21 00:59:16;;;;;;;20.20;10.00;;;;;;;-0.19;72.72;101214.85;107606;1298;22424;-80
2021/12/21 01:01:46;;;;;;;14.90;9.50;;;;;;;-0.18;72.77;101216.17;107615;1295;23605;-80
2021/12/21 01:04:22;;;;;;;16.20;10.20;;;;;;;-0.17;72.75;101217.52;107782;1294;23669;-79
2021/12/21 01:07:03;;;;;;;15.40;9.40;;;;;;;-0.16;72.64;101218.86;107790;1295;23784;-79
2021/12/21 01:12:44;;;;;;;15.70;9.00;;;;;;;-0.18;72.57;101214.64;107347;1300;23811;-79
2021/12/21 01:28:22;;;;;;;14.60;8.90;;;;;;;-0.15;72.74;101223.80;106440;1307;23628;-78
2021/12/21 01:31:17;;;;;;;13.20;9.30;;;;;;;-0.14;72.68;101214.08;106862;1304;22017;-79
2021/12/21 01:36:30;;;;;;;13.90;8.60;;;;;;;-0.16;72.62;101206.34;106732;1304;22786;-77
2021/12/21 01:39:17;;;;;;;13.60;8.90;;;;;;;-0.15;72.55;101207.88;106896;1302;22518;-78
2021/12/21 01:42:01;;;;;;;18.30;8.90;;;;;;;-0.15;72.49;101207.67;106809;1301;22028;-78
2021/12/21 01:49:54;;;;;;;12.10;8.20;;;;;;;-0.08;72.43;101210.59;108092;1292;23029;-77
2021/12/21 01:52:26;;;;;;;14.00;8.60;;;;;;;-0.08;72.39;101214.09;108108;1291;151249;-78
2021/12/21 01:54:56;;;;;;;16.80;8.40;;;;;;;-0.09;72.41;101214.64;108143;1288;24457;-78
2021/12/21 01:57:26;;;;;;;15.20;8.90;;;;;;;-0.09;72.42;101212.77;108104;1292;22240;-78
2021/12/21 01:59:55;;;;;;;13.10;8.00;;;;;;;-0.11;72.40;101215.30;108015;1292;23727;-78
2021/12/21 02:02:25;;;;;;;11.60;7.20;;;;;;;-0.16;72.38;101212.58;108168;1292;23097;-78
2021/12/21 02:04:54;;;;;;;13.40;7.90;;;;;;;-0.15;72.45;101218.62;108167;1291;23635;-78
2021/12/21 02:07:23;;;;;;;17.00;8.80;;;;;;;-0.13;72.53;101221.10;108113;1292;24459;-77
2021/12/21 02:09:53;;;;;;;10.30;7.60;;;;;;;-0.13;72.43;101224.02;108078;1294;22781;-77
2021/12/21 02:12:22;;;;;;;12.50;8.80;;;;;;;-0.14;72.41;101220.30;108135;1292;23490;-78
2021/12/21 02:14:58;;;;;;;11.40;8.30;;;;;;;-0.19;72.29;101218.79;107834;1289;23086;-77
2021/12/21 02:20:20;;;;;;;12.20;8.40;;;;;;;-0.31;72.30;101215.78;108010;1291;22119;-77
2021/12/21 02:23:04;;;;;;;11.40;8.20;;;;;;;-0.35;72.39;101214.60;108063;1291;22113;-77
2021/12/21 02:30:48;;;;;;;12.20;7.10;;;;;;;-0.41;72.54;101212.10;107401;1300;22049;-78
2021/12/21 02:33:18;;;;;;;11.10;7.90;;;;;;;-0.39;72.55;101212.23;107248;1301;22009;-78
2021/12/21 02:35:48;;;;;;;12.90;7.60;;;;;;;-0.37;72.51;101216.42;106846;1303;23666;-78
2021/12/21 02:38:18;;;;;;;10.80;7.00;;;;;;;-0.34;72.56;101214.73;107133;1303;23097;-78
2021/12/21 02:40:48;;;;;;;10.10;7.70;;;;;;;-0.34;72.51;101212.12;107169;1303;22057;-78
2021/12/21 02:43:18;;;;;;;14.10;7.30;;;;;;;-0.34;72.43;101213.00;107256;1298;22499;-78
2021/12/21 02:45:48;;;;;;;10.30;6.80;;;;;;;-0.34;72.36;101212.31;107540;1298;23721;-78
2021/12/21 02:48:17;;;;;;;10.80;7.00;;;;;;;-0.35;72.43;101211.30;107291;1298;22008;-78
2021/12/21 02:50:47;;;;;;;14.20;7.20;;;;;;;-0.36;72.34;101209.97;107800;1297;23767;-79
2021/12/21 02:53:17;;;;;;;9.40;6.00;;;;;;;-0.36;72.37;101209.95;107717;1292;22003;-78
2021/12/21 02:55:49;;;;;;;9.20;6.20;;;;;;;-0.36;72.42;101211.36;107964;1294;22733;-77
2021/12/21 02:58:19;;;;;;;;;;;;;;;-0.37;72.49;101209.50;107727;1292;23578;-78
2021/12/21 03:00:48;;;;;;;10.40;6.70;;;;;;;-0.46;72.40;101207.00;108015;1292;22026;-78
2021/12/21 03:03:20;;;;;;;9.00;5.40;;;;;;;-0.47;72.55;101212.23;107941;1292;23854;-78
2021/12/21 03:05:54;;;;;;;8.50;5.60;;;;;;;-0.47;72.55;101213.60;107816;1291;22859;-77
2021/12/21 03:08:35;;;;;;;7.00;4.60;;;;;;;-0.45;72.54;101218.75;108325;1291;22846;-78
2021/12/21 03:16:26;;;;;;;8.60;5.00;;;;;;;-0.44;72.70;101216.42;108452;1286;22745;-78
2021/12/21 03:18:57;;;;;;;8.90;5.60;;;;;;;-0.44;72.70;101217.47;108220;1286;22029;-78
2021/12/21 03:21:27;;;;;;;6.40;5.10;;;;;;;-0.44;72.72;101215.21;108553;1285;22021;-78
2021/12/21 03:23:57;;;;;;;8.40;5.80;;;;;;;-0.42;72.77;101213.58;107805;1294;22012;-78
2021/12/21 03:26:28;;;;;;;9.70;6.10;;;;;;;-0.41;72.79;101218.15;107844;1297;22782;-79
2021/12/21 03:28:58;;;;;;;8.80;5.80;;;;;;;-0.37;72.94;101216.75;107645;1297;22093;-79
2021/12/21 03:31:27;;;;;;;8.40;6.00;;;;;;;-0.34;72.82;101216.98;107568;1298;22049;-79
2021/12/21 03:33:57;;;;;;;9.20;5.80;;;;;;;-0.32;72.73;101219.46;107727;1298;23656;-79
2021/12/21 03:36:27;;;;;;;13.70;5.80;;;;;;;-0.30;72.78;101220.38;107752;1298;22040;-79
2021/12/21 03:39:04;;;;;;;7.10;5.00;;;;;;;-0.28;72.69;101220.64;107510;1298;22188;-81
2021/12/21 03:41:44;;;;;;;8.30;5.00;;;;;;;-0.29;72.78;101218.59;107638;1291;23067;-79
2021/12/21 03:44:17;;;;;;;8.90;6.10;;;;;;;-0.29;72.86;101217.02;108325;1288;23122;-80
2021/12/21 03:46:49;;;;;;;9.80;5.80;;;;;;;-0.28;72.83;101215.95;108359;1286;22103;-80
2021/12/21 03:52:17;;;;;;;7.10;5.30;;;;;;;-0.25;72.85;101215.14;108409;1291;22884;-80
2021/12/21 03:54:51;;;;;;;8.10;5.30;;;;;;;-0.26;72.79;101217.77;107881;1295;22141;-78
2021/12/21 03:57:22;;;;;;;6.50;4.20;;;;;;;-0.28;72.89;101220.14;107319;1300;22087;-78
2021/12/21 03:59:55;;;;;;;10.00;5.30;;;;;;;-0.30;72.83;101222.13;107392;1300;23938;-78
2021/12/21 04:02:29;;;;;;;7.40;5.40;;;;;;;-0.31;72.87;101224.61;107361;1301;22129;-78
2021/12/21 04:04:59;;;;;;;8.50;5.90;;;;;;;-0.35;72.85;101227.22;107413;1300;22089;-78
2021/12/21 04:07:29;;;;;;;9.20;5.70;;;;;;;-0.39;72.96;101231.39;107107;1304;22775;-79
2021/12/21 04:09:59;;;;;;;11.00;5.60;;;;;;;-0.41;72.93;101235.67;107153;1303;22852;-79
2021/12/21 04:12:29;;;;;;;10.10;6.20;;;;;;;-0.42;72.98;101235.37;107390;1301;22083;-79
2021/12/21 04:14:58;;;;;;;9.50;5.50;;;;;;;-0.43;72.89;101233.52;107403;1298;22020;-78
2021/12/21 04:17:27;;;;;;;7.10;5.30;;;;;;;-0.44;73.00;101235.45;107866;1297;22062;-79
2021/12/21 04:20:00;;;;;;;7.50;5.40;;;;;;;-0.44;72.89;101235.96;107363;1300;22141;-78
2021/12/21 04:22:29;;;;;;;;;;;;;;;-0.42;73.04;101237.61;107346;1300;23855;-79
2021/12/21 04:25:02;;;;;;;9.20;5.60;;;;;;;-0.48;72.91;101237.05;106742;1301;23122;-78
2021/12/21 04:27:32;;;;;;;9.50;6.30;;;;;;;-0.52;72.88;101233.73;107565;1300;22012;-78
2021/12/21 04:30:02;;;;;;;13.10;7.30;;;;;;;-0.54;72.76;101231.95;107226;1303;22008;-78
2021/12/21 04:32:32;;;;;;;20.40;10.30;;;;;;;-0.56;72.63;101232.05;107169;1303;22551;-79
2021/12/21 04:35:02;;;;;;;14.20;8.50;;;;;;;-0.59;72.61;101231.02;107219;1302;22151;-80
2021/12/21 04:37:35;;;;;;;14.60;7.10;;;;;;;-0.63;72.51;101235.87;107320;1295;22011;-79
2021/12/21 04:40:07;;;;;;;;;;;;;;;-0.68;72.37;101236.27;107631;1295;22124;-78
2021/12/21 04:42:40;;;;;;;17.20;7.70;;;;;;;-0.80;72.29;101238.43;107400;1295;21961;-78
2021/12/21 04:45:09;;;;;;;14.70;7.60;;;;;;;-0.88;72.33;101238.98;107746;1295;22008;-79
2021/12/21 04:47:38;;;;;;;16.90;9.70;;;;;;;-0.94;72.30;101238.21;107720;1291;23717;-79
2021/12/21 04:50:09;;;;;;;19.10;14.00;;;;;;;-1.01;72.20;101233.88;107690;1298;22649;-79
2021/12/21 04:52:39;;;;;;;22.30;11.90;;;;;;;-1.07;72.28;101232.77;107211;1302;22014;-79
2021/12/21 04:55:09;;;;;;;19.60;13.00;;;;;;;-1.11;72.22;101232.08;107202;1303;22809;-79
2021/12/21 04:57:40;;;;;;;14.10;8.40;;;;;;;-1.15;72.22;101234.88;106918;1304;22484;-78
2021/12/21 05:00:13;;;;;;;12.20;7.00;;;;;;;-1.18;72.23;101233.45;107373;1300;22079;-78
2021/12/21 05:02:42;;;;;;;14.70;7.30;;;;;;;-1.21;72.09;101235.50;107274;1300;23049;-78
2021/12/21 05:05:12;;;;;;;12.00;7.20;;;;;;;-1.25;72.08;101233.23;107389;1299;23058;-78
2021/12/21 05:07:46;;;;;;;12.70;7.80;;;;;;;-1.27;72.11;101233.34;107639;1295;22262;-78
2021/12/21 05:10:18;;;;;;;11.70;6.70;;;;;;;-1.29;72.12;101238.96;108055;1287;23183;-78
2021/12/21 05:12:48;;;;;;;12.50;7.00;;;;;;;-1.30;72.08;101241.59;108603;1288;22101;-79
2021/12/21 05:15:20;;;;;;;11.80;8.40;;;;;;;-1.32;72.12;101245.17;108532;1287;22054;-79
2021/12/21 05:17:49;;;;;;;17.70;8.90;;;;;;;-1.34;72.12;101249.23;108378;1288;22011;-78
2021/12/21 05:20:20;;;;;;;16.80;9.70;;;;;;;-1.38;72.15;101249.92;108266;1291;22028;-78
2021/12/21 05:22:50;;;;;;;17.70;8.70;;;;;;;-1.40;72.20;101247.58;108370;1287;22005;-80
2021/12/21 05:25:20;;;;;;;13.90;6.40;;;;;;;-1.40;72.32;101252.28;108277;1290;22021;-80
2021/12/21 05:27:49;;;;;;;10.10;6.00;;;;;;;-1.43;72.18;101254.11;107755;1295;23165;-79
2021/12/21 05:30:19;;;;;;;9.60;5.30;;;;;;;-1.46;72.19;101258.55;108725;1292;22010;-85
2021/12/21 05:32:55;;;;;;;11.30;6.40;;;;;;;-1.49;72.16;101256.42;108476;1293;22077;-85
2021/12/21 05:35:29;;;;;;;12.70;7.80;;;;;;;-1.51;72.27;101258.45;108169;1295;22014;-83
2021/12/21 05:38:06;;;;;;;12.60;8.50;;;;;;;-1.53;72.16;101256.81;107922;1300;23720;-82
2021/12/21 05:40:42;;;;;;;16.00;9.80;;;;;;;-1.55;72.27;101256.20;107634;1301;23724;-83
2021/12/21 05:43:27;;;;;;;12.70;6.90;;;;;;;-1.55;72.31;101260.91;107644;1302;23703;-85
2021/12/21 05:45:59;;;;;;;12.70;6.70;;;;;;;-1.58;72.24;101263.27;108814;1283;23618;-85
2021/12/21 05:48:30;;;;;;;13.50;7.40;;;;;;;-1.61;72.16;101264.45;109093;1288;21968;-85
2021/12/21 05:51:00;;;;;;;13.20;7.90;;;;;;;-1.65;72.24;101267.20;109164;1287;22010;-84
2021/12/21 05:53:30;;;;;;;10.80;7.50;;;;;;;-1.70;72.24;101271.55;108937;1288;22054;-85
2021/12/21 05:56:00;;;;;;;11.40;7.60;;;;;;;-1.76;72.30;101275.59;108939;1288;21998;-84
2021/12/21 05:58:33;;;;;;;14.50;7.70;;;;;;;-1.81;72.33;101274.96;108691;1292;22663;-84
2021/12/21 06:01:03;;;;;;;11.50;7.80;;;;;;;-1.84;72.24;101280.27;108452;1291;22062;-84
2021/12/21 06:03:33;;;;;;;13.30;7.80;;;;;;;-1.86;72.25;101282.98;108668;1293;22485;-84
2021/12/21 06:06:10;;;;;;;19.20;13.20;;;;;;;-1.89;72.27;101287.71;108718;1291;22019;-84
2021/12/21 06:08:44;;;;;;;24.50;13.70;;;;;;;-1.90;72.25;101290.20;108809;1291;21954;-84
2021/12/21 06:12:25;;;;;;;;;;;;;;;;;;;;;
2021/12/21 06:25:52;;;;;;;25.10;11.70;;;;;;;-1.98;72.60;101305.39;107035;1301;21978;-82
2021/12/21 06:28:22;;;;;;;16.80;11.50;;;;;;;-1.99;72.55;101307.14;106964;1302;23062;-82
2021/12/21 06:30:51;;;;;;;22.20;11.30;;;;;;;-2.01;72.64;101310.66;107164;1300;22168;-81
2021/12/21 06:33:22;;;;;;;18.50;10.40;;;;;;;-2.01;72.64;101314.67;107307;1298;23656;-78
2021/12/21 06:35:55;;;;;;;22.50;14.50;;;;;;;-2.02;72.74;101321.07;107522;1292;21983;-77
2021/12/21 06:38:25;;;;;;;22.40;14.20;;;;;;;-2.04;72.56;101326.34;107924;1292;22113;-76
2021/12/21 06:40:55;;;;;;;25.20;15.00;;;;;;;-2.06;72.68;101328.66;107646;1294;22702;-78
2021/12/21 06:43:25;;;;;;;25.00;15.60;;;;;;;-2.09;72.69;101322.89;107474;1297;23605;-80
2021/12/21 06:46:04;;;;;;;25.80;18.70;;;;;;;-2.11;72.71;101324.56;107623;1298;23724;-78
2021/12/21 06:53:55;;;;;;;37.10;23.80;;;;;;;-2.12;73.10;101327.03;107584;1296;22099;-76
2021/12/21 06:56:27;;;;;;;30.40;21.30;;;;;;;-2.12;73.19;101332.71;107515;1298;22175;-77
2021/12/21 06:58:57;;;;;;;34.30;21.60;;;;;;;-2.12;73.21;101331.98;107686;1294;23105;-77
2021/12/21 07:01:28;;;;;;;29.60;20.00;;;;;;;-2.11;73.21;101331.83;107734;1293;23742;-77
2021/12/21 07:03:58;;;;;;;27.00;16.10;;;;;;;-2.09;73.38;101335.72;108054;1293;23147;-77
2021/12/21 07:06:28;;;;;;;29.70;18.50;;;;;;;-2.09;73.34;101340.71;108062;1294;22010;-76
2021/12/21 07:11:41;;;;;;;33.10;20.30;;;;;;;-2.08;73.25;101334.62;107564;1299;22002;-77
2021/12/21 07:19:51;;;;;;;63.00;34.40;;;;;;;-2.03;73.84;101337.37;107581;1294;22033;-78
2021/12/21 07:22:25;;;;;;;72.60;38.10;;;;;;;-1.97;73.99;101339.16;107935;1294;22259;-77
2021/12/21 07:24:55;;;;;;;72.80;36.90;;;;;;;-1.88;74.07;101339.16;107714;1292;22034;-77
2021/12/21 07:27:25;;;;;;;61.30;32.90;;;;;;;-1.80;74.00;101336.41;107797;1294;23723;-76
2021/12/21 07:29:55;;;;;;;42.30;26.20;;;;;;;-1.72;74.01;101341.06;107372;1293;22385;-77
2021/12/21 07:32:25;;;;;;;44.80;25.10;;;;;;;-1.66;74.01;101339.77;107788;1294;22742;-75
2021/12/21 07:34:54;;;;;;;39.50;24.00;;;;;;;-1.59;73.99;101341.57;107854;1293;22859;-77
2021/12/21 07:37:27;;;;;;;36.70;20.10;;;;;;;-1.54;73.90;101343.59;107953;1295;22201;-77
2021/12/21 07:39:56;;;;;;;38.00;18.90;;;;;;;-1.49;73.90;101344.39;107604;1300;22037;-77
2021/12/21 07:42:25;;;;;;;34.30;19.60;;;;;;;-1.43;73.92;101341.52;107377;1299;22003;-76
2021/12/21 07:44:55;;;;;;;36.30;21.30;;;;;;;-1.36;73.81;101337.98;107377;1300;22050;-77
2021/12/21 07:47:25;;;;;;;39.80;27.00;;;;;;;-1.31;73.74;101333.41;107189;1295;22181;-77
2021/12/21 07:49:56;;;;;;;44.30;31.60;;;;;;;-1.25;73.59;101333.84;107408;1298;22063;-76
2021/12/21 07:52:26;;;;;;;51.90;32.80;;;;;;;-1.19;73.55;101327.52;107383;1303;22058;-77
2021/12/21 07:54:55;;;;;;;57.10;38.90;;;;;;;-1.14;73.49;101324.70;107084;1301;23720;-77
2021/12/21 07:57:25;;;;;;;52.80;38.20;;;;;;;-1.09;73.41;101328.30;107119;1298;22069;-77
2021/12/21 08:00:03;;;;;;;47.50;33.80;;;;;;;-1.05;73.37;101330.89;107712;1298;23030;-76
2021/12/21 08:02:54;;;;;;;33.20;22.90;;;;;;;-1.02;73.18;101337.33;107242;1300;22837;-76
2021/12/21 08:05:30;;;;;;;30.10;18.50;;;;;;;-1.01;73.23;101339.17;107122;1300;22015;-76
2021/12/21 08:08:11;;;;;;;24.30;16.60;;;;;;;-1.00;72.96;101342.58;107386;1298;22013;-76
2021/12/21 08:13:38;;;;;;;19.30;11.80;;;;;;;-0.92;72.87;101342.90;107905;1291;21991;-76
2021/12/21 08:16:08;;;;;;;17.50;11.80;;;;;;;-0.86;72.76;101346.63;107837;1291;23145;-78
2021/12/21 08:18:38;;;;;;;18.60;10.80;;;;;;;-0.78;72.77;101349.01;107967;1291;21994;-76
2021/12/21 08:21:08;;;;;;;15.20;9.60;;;;;;;-0.72;72.50;101353.41;108347;1291;23738;-75
2021/12/21 08:23:37;;;;;;;19.00;9.20;;;;;;;-0.67;72.43;101359.23;107956;1290;23165;-76
2021/12/21 08:26:06;;;;;;;22.00;13.00;;;;;;;-0.64;72.10;101362.04;108087;1291;23023;-77
2021/12/21 08:28:36;;;;;;;32.50;18.30;;;;;;;-0.61;72.13;101364.99;108087;1291;22795;-76
2021/12/21 08:31:10;;;;;;;22.80;15.10;;;;;;;-0.59;71.96;101361.10;107831;1295;23148;-76
2021/12/21 08:33:41;;;;;;;26.40;16.00;;;;;;;-0.59;71.64;101360.23;107921;1293;23056;-77
2021/12/21 08:36:11;;;;;;;28.30;18.30;;;;;;;-0.54;71.58;101363.99;107641;1298;23773;-76
2021/12/21 08:38:43;;;;;;;32.00;18.90;;;;;;;-0.47;71.46;101371.12;107451;1298;22300;-77
2021/12/21 08:41:12;;;;;;;41.00;20.90;;;;;;;-0.39;71.34;101373.68;107358;1298;22009;-76
2021/12/21 08:43:42;;;;;;;25.10;16.50;;;;;;;-0.31;71.39;101371.02;107575;1298;22145;-76
2021/12/21 08:46:11;;;;;;;22.30;14.90;;;;;;;-0.24;70.99;101376.05;107354;1301;22073;-75
2021/12/21 08:48:41;;;;;;;24.50;14.90;;;;;;;-0.19;70.73;101379.48;107518;1298;23049;-75
2021/12/21 08:51:10;;;;;;;33.10;19.00;;;;;;;-0.15;70.65;101377.70;107919;1298;23649;-76
2021/12/21 08:53:42;;;;;;;28.10;18.80;;;;;;;-0.12;70.39;101376.86;107792;1292;23592;-77
2021/12/21 08:56:12;;;;;;;27.30;18.20;;;;;;;-0.13;69.99;101377.43;108409;1290;22025;-76
2021/12/21 08:58:41;;;;;;;26.80;17.50;;;;;;;-0.17;69.57;101376.77;107883;1295;22111;-75
2021/12/21 09:01:11;;;;;;;19.80;14.30;;;;;;;-0.21;69.42;101383.73;107847;1298;24490;-76
2021/12/21 09:03:43;;;;;;;22.40;14.10;;;;;;;-0.25;69.11;101381.13;108447;1292;23733;-81
2021/12/21 09:06:13;;;;;;;21.90;15.00;;;;;;;-0.30;68.86;101386.05;108547;1292;21968;-79
2021/12/21 09:08:42;;;;;;;30.20;14.00;;;;;;;-0.33;68.64;101385.87;108431;1292;22056;-79
2021/12/21 09:11:12;;;;;;;24.40;15.10;;;;;;;-0.34;68.64;101384.35;107902;1297;22013;-79
2021/12/21 09:13:41;;;;;;;26.30;15.20;;;;;;;-0.33;68.64;101380.47;107994;1296;22047;-79
2021/12/21 09:16:11;;;;;;;28.10;14.80;;;;;;;-0.28;68.66;101384.73;107867;1294;22028;-78
2021/12/21 09:18:40;;;;;;;23.20;15.60;;;;;;;-0.23;68.67;101387.82;108098;1293;22876;-78
2021/12/21 09:21:10;;;;;;;27.70;17.20;;;;;;;-0.20;68.61;101388.36;108100;1294;22012;-80
2021/12/21 09:23:41;;;;;;;25.70;14.50;;;;;;;-0.17;68.47;101388.17;108217;1294;22155;-78
2021/12/21 09:26:14;;;;;;;21.30;12.80;;;;;;;-0.06;68.85;101389.93;108209;1293;23119;-78
2021/12/21 09:28:44;;;;;;;17.80;11.50;;;;;;;0.04;68.57;101393.29;107587;1294;22042;-79
2021/12/21 09:31:14;;;;;;;21.90;12.40;;;;;;;0.09;68.30;101395.44;108353;1292;22033;-78
2021/12/21 09:33:43;;;;;;;24.20;13.90;;;;;;;0.19;68.35;101393.04;108185;1294;21986;-79
2021/12/21 09:36:12;;;;;;;27.10;16.30;;;;;;;0.37;68.46;101395.09;108340;1294;22120;-80
2021/12/21 09:38:44;;;;;;;26.30;16.30;;;;;;;0.55;68.22;101394.90;107977;1298;24420;-80
2021/12/21 09:41:15;;;;;;;26.40;15.10;;;;;;;0.65;67.55;101394.52;107649;1303;23051;-78
2021/12/21 09:43:48;;;;;;;27.60;15.80;;;;;;;0.67;67.03;101389.38;106961;1307;23238;-77
2021/12/21 09:46:18;;;;;;;22.20;13.80;;;;;;;0.70;66.51;101393.96;106892;1303;22020;-77
2021/12/21 09:48:47;;;;;;;18.90;11.90;;;;;;;0.70;66.31;101391.16;107139;1303;23820;-79
2021/12/21 09:51:17;;;;;;;19.20;11.90;;;;;;;0.68;66.03;101393.15;107180;1303;22119;-79
2021/12/21 09:53:48;;;;;;;22.30;13.20;;;;;;;0.67;65.87;101387.47;106976;1310;194104;-79
2021/12/21 09:56:18;;;;;;;20.60;13.60;;;;;;;0.71;65.83;101385.22;106660;1308;23640;-78
2021/12/21 09:58:47;;;;;;;25.90;15.00;;;;;;;0.69;65.40;101386.72;106740;1309;22026;-78
2021/12/21 10:01:20;;;;;;;37.60;24.40;;;;;;;0.67;65.23;101385.06;106538;1312;22010;-78
2021/12/21 10:03:50;;;;;;;25.90;17.60;;;;;;;0.64;65.20;101381.40;106820;1307;21977;-79
2021/12/21 10:06:19;;;;;;;27.40;18.00;;;;;;;0.61;65.10;101384.15;107579;1301;22977;-78
2021/12/21 10:08:49;;;;;;;27.00;16.20;;;;;;;0.64;65.26;101376.21;107688;1301;22853;-78
2021/12/21 10:11:23;;;;;;;28.90;14.90;;;;;;;0.72;65.31;101379.63;107587;1294;22082;-78
2021/12/21 10:13:53;;;;;;;27.50;16.80;;;;;;;0.80;65.17;101382.16;107969;1294;23832;-78
2021/12/21 10:16:23;;;;;;;32.50;22.50;;;;;;;0.91;65.26;101384.52;107388;1298;22717;-78
2021/12/21 10:18:52;;;;;;;19.20;13.10;;;;;;;1.04;65.32;101381.05;107394;1292;22027;-80
2021/12/21 10:21:22;;;;;;;19.90;11.50;;;;;;;1.20;65.42;101378.29;107773;1292;22655;-78
2021/12/21 10:23:54;;;;;;;18.70;11.20;;;;;;;1.37;65.32;101377.88;108083;1292;22127;-80
2021/12/21 10:26:26;;;;;;;22.80;11.20;;;;;;;1.52;64.80;101378.66;108174;1292;23055;-80
2021/12/21 10:29:05;;;;;;;;;;;;;;;1.61;64.23;101378.62;107978;1295;22014;-80
2021/12/21 10:31:39;;;;;;;19.90;11.50;;;;;;;1.63;63.96;101376.29;107926;1295;22001;-79
2021/12/21 10:34:18;;;;;;;18.20;9.90;;;;;;;1.71;63.68;101376.89;107400;1292;23146;-80
2021/12/21 10:36:51;;;;;;;15.50;10.10;;;;;;;1.84;63.62;101377.88;107743;1296;22068;-81
2021/12/21 10:39:28;;;;;;;16.50;12.00;;;;;;;1.98;63.09;101375.74;107083;1303;23066;-82
2021/12/21 10:42:04;;;;;;;17.50;11.50;;;;;;;2.03;62.46;101372.31;107137;1301;23090;-82
2021/12/21 10:44:34;;;;;;;19.80;11.20;;;;;;;2.09;62.08;101371.77;107207;1302;22909;-82
2021/12/21 10:47:03;;;;;;;16.90;10.60;;;;;;;2.18;61.77;101374.58;107241;1300;23776;-81
2021/12/21 10:49:37;;;;;;;16.50;9.90;;;;;;;2.27;61.53;101376.48;107577;1301;24403;-82
2021/12/21 10:52:12;;;;;;;17.10;11.40;;;;;;;2.36;61.21;101374.72;107482;1298;23215;-82
2021/12/21 10:54:47;;;;;;;17.50;10.60;;;;;;;2.46;60.72;101373.84;107641;1295;22011;-81
2021/12/21 10:57:31;;;;;;;16.30;10.50;;;;;;;2.61;60.56;101369.96;107416;1297;22051;-81
2021/12/21 11:00:14;;;;;;;17.50;10.70;;;;;;;2.92;60.09;101367.25;107254;1300;22046;-82
2021/12/21 11:02:49;;;;;;;17.60;11.70;;;;;;;3.24;59.34;101366.63;107327;1300;23644;-83
2021/12/21 11:05:20;;;;;;;13.40;9.00;;;;;;;3.87;62.28;101363.52;106837;1304;22042;-81
2021/12/21 11:10:28;;;;;;;15.30;8.80;;;;;;;5.65;63.76;101363.47;106429;1309;22056;-80
2021/12/21 11:13:15;;;;;;;11.50;7.80;;;;;;;6.00;58.11;101361.67;106100;1313;23094;-81
2021/12/21 11:20:09;;;;;;;10.40;6.70;;;;;;;5.16;52.95;101363.54;107031;1301;23807;-83
2021/12/21 11:22:45;;;;;;;11.10;8.00;;;;;;;4.98;53.38;101361.77;106772;1300;22009;-82
2021/12/21 11:25:15;;;;;;;15.00;9.90;;;;;;;4.86;52.90;101361.95;107070;1303;22213;-81
2021/12/21 11:27:45;;;;;;;14.10;8.30;;;;;;;4.58;52.14;101358.23;106340;1307;22044;-81
2021/12/21 11:30:20;;;;;;;12.80;8.10;;;;;;;4.24;51.92;101355.14;106342;1308;22162;-81
2021/12/21 11:32:56;;;;;;;15.10;10.20;;;;;;;3.89;51.94;101356.71;106555;1306;23070;-81
2021/12/21 11:38:09;;;;;;;13.70;9.60;;;;;;;3.27;52.17;101354.42;106735;1307;21966;-80
2021/12/21 11:40:45;;;;;;;10.70;7.00;;;;;;;2.96;52.53;101354.25;106676;1306;22114;-80
2021/12/21 11:43:54;;;;;;;14.50;8.90;;;;;;;2.66;52.97;101347.73;106445;1302;22054;-78
2021/12/21 11:46:58;;;;;;;22.20;8.60;;;;;;;2.33;53.29;101346.55;106566;1303;22017;-80
2021/12/21 11:49:46;;;;;;;12.70;7.60;;;;;;;2.02;53.79;101346.64;106803;1306;23737;-79
2021/12/21 11:52:21;;;;;;;10.80;6.60;;;;;;;1.81;54.38;101347.33;107261;1301;22124;-80
2021/12/21 11:55:04;;;;;;;17.80;9.10;;;;;;;1.64;54.74;101350.02;107342;1299;21989;-82
2021/12/21 11:57:44;;;;;;;18.90;10.20;;;;;;;1.50;55.17;101345.23;107356;1300;22105;-83
2021/12/21 12:00:20;;;;;;;17.10;9.20;;;;;;;1.38;55.60;101343.11;107181;1300;22039;-81
2021/12/21 12:02:51;;;;;;;16.10;9.60;;;;;;;1.29;55.78;101343.83;106656;1303;22055;-81
2021/12/21 12:05:25;;;;;;;19.60;10.90;;;;;;;1.19;56.26;101339.66;106598;1303;24650;-81
2021/12/21 12:08:13;;;;;;;17.90;11.60;;;;;;;1.12;56.45;101337.09;106814;1301;23900;-81
2021/12/21 12:10:58;;;;;;;18.80;10.60;;;;;;;1.09;56.77;101337.92;106594;1306;22019;-81
2021/12/21 12:13:40;;;;;;;16.90;9.20;;;;;;;1.03;56.73;101335.13;106766;1306;23177;-80
2021/12/21 12:16:15;;;;;;;15.10;8.40;;;;;;;1.02;57.12;101341.45;106839;1305;22008;-80
2021/12/21 12:18:50;;;;;;;18.90;10.30;;;;;;;1.03;57.04;101343.29;107411;1305;22080;-81
2021/12/21 12:21:25;;;;;;;19.90;11.30;;;;;;;1.01;56.92;101340.81;107368;1301;23752;-82
2021/12/21 12:24:01;;;;;;;19.20;10.70;;;;;;;0.97;57.10;101339.81;107121;1300;23637;-81
2021/12/21 12:26:36;;;;;;;16.80;9.90;;;;;;;0.97;57.09;101335.83;107200;1300;22790;-81
2021/12/21 12:29:20;;;;;;;20.20;12.40;;;;;;;0.97;57.17;101335.85;107042;1298;23243;-81
2021/12/21 12:32:09;;;;;;;21.80;12.20;;;;;;;0.97;57.21;101336.70;107685;1298;23414;-82
2021/12/21 12:34:41;;;;;;;19.70;11.40;;;;;;;0.95;57.12;101336.44;107830;1298;22048;-83
2021/12/21 12:37:53;;;;;;;15.60;9.60;;;;;;;0.92;57.24;101336.43;107219;1303;22032;-81
2021/12/21 12:40:43;;;;;;;17.10;10.10;;;;;;;0.87;57.22;101332.87;106480;1307;22054;-81
2021/12/21 12:43:32;;;;;;;16.40;10.30;;;;;;;0.81;57.17;101334.23;106827;1304;22084;-82
2021/12/21 12:46:07;;;;;;;12.80;9.10;;;;;;;0.76;57.31;101335.36;107370;1301;23640;-82
2021/12/21 12:48:48;;;;;;;20.40;11.70;;;;;;;0.74;57.30;101329.42;107530;1298;22035;-82
2021/12/21 12:51:32;;;;;;;33.80;15.30;;;;;;;0.70;57.26;101333.95;107568;1298;22020;-83
2021/12/21 12:54:18;;;;;;;16.20;8.20;;;;;;;0.64;57.06;101330.41;107637;1298;22039;-83
2021/12/21 12:56:49;;;;;;;17.70;10.50;;;;;;;0.57;56.99;101335.34;107674;1295;22014;-82
2021/12/21 12:59:19;;;;;;;13.00;7.70;;;;;;;0.51;57.06;101334.42;107970;1294;22019;-80
2021/12/21 13:01:49;;;;;;;15.10;7.50;;;;;;;0.42;57.02;101334.51;107570;1294;21994;-77